Latest Coastal Weather Observations for Eucla

IDW60701

Issued at 10:42 am WST Saturday 23 May 2015 (issued every 10 minutes, with the page automatically refreshed every 10 minutes)

About coastal observations | Map of coastal stations | Coastal observations for WA | Marine services | Other Formats
Station Details ID: 011003 Name: EUCLA Lat: -31.68 Lon: 128.90 Height: 93.1 m
Data from the previous 72 hours. | See also: Recent months at Eucla
Date/Time
WST
Temp

°C
Wind Pressure Rain
since 9am
mm
Weather Cloud Vis
km
Sea
Height
m
Swell
Dir
 
Speed
knots
Gust
knots
hPa Trend Height
m
Period
s
Dir
23/10:30am 16.8 NNE 14 21 1023.5 - 0.0 - - - - - - -
23/10:00am 15.6 NNE 15 24 1024.0 - 0.0 - - - - - - -
23/09:30am 15.4 NNE 15 22 1024.3 - 0.0 - - - - - - -
23/09:13am 15.6 N 16 27 1024.4 - 0.0 - - - - - - -
23/09:00am 13.8 N 16 23 1024.4 - 0.0 Fine Partly cloudy 40 - - - -
23/08:30am 12.3 NNE 14 22 1024.7 - 0.0 - - - - - - -
23/08:00am 11.3 NNE 15 21 1024.9 - 0.0 - - - - - - -
23/07:30am 10.6 NNE 13 18 1024.9 - 0.0 - - - - - - -
23/07:00am 10.3 NNE 12 19 1025.0 - 0.0 - - - - - - -
23/06:30am 10.1 NNE 11 18 1025.0 - 0.0 - - - - - - -
23/06:00am 9.8 NNE 11 16 1024.8 - 0.0 - - - - - - -
23/05:30am 9.7 NNE 9 14 1025.0 - 0.0 - - - - - - -
23/05:00am 9.4 NNE 8 14 1024.8 - 0.0 - - - - - - -
23/04:30am 9.8 NNE 8 11 1024.9 - 0.0 - - - - - - -
23/04:00am 10.1 NNE 7 11 1025.0 - 0.0 - - - - - - -
23/03:30am 10.2 NNE 9 12 1025.1 - 0.0 - - - - - - -
23/03:00am 10.6 NNE 9 13 1025.2 - 0.0 - - - - - - -
23/02:30am 10.9 NNE 9 15 1025.2 - 0.0 - - - - - - -
23/02:00am 10.6 NNE 8 13 1025.4 - 0.0 - - - - - - -
23/01:30am 10.9 NNE 11 16 1025.3 - 0.0 - - - - - - -
23/01:00am 10.5 NNE 12 18 1025.2 - 0.0 - - - - - - -
23/12:30am 9.7 NNE 11 16 1025.5 - 0.0 - - - - - - -
23/12:00am 9.3 NNE 9 13 1025.8 - 0.0 - - - - - - -
 
Date/Time
WST
Temp

°C
Wind Pressure Rain
since 9am
mm
Weather Cloud Vis
km
Sea
Height
m
Swell
Dir
 
Speed
knots
Gust
knots
hPa Trend Height
m
Period
s
Dir
22/11:30pm 8.8 NNE 8 10 1026.4 - 0.0 - - - - - - -
22/11:00pm 8.9 NE 8 12 1026.5 - 0.0 - - - - - - -
22/10:30pm 9.1 NE 9 13 1026.8 - 0.0 - - - - - - -
22/10:00pm 9.4 NE 8 10 1027.0 - 0.0 - - - - - - -
22/09:30pm 9.8 NE 8 12 1026.9 - 0.0 - - - - - - -
22/09:00pm 10.7 NE 8 11 1027.2 - 0.0 - - - - - - -
22/08:30pm 10.7 NE 7 11 1027.1 - 0.0 - - - - - - -
22/08:00pm 11.2 ENE 7 9 1027.1 - 0.0 - - - - - - -
22/07:30pm 11.5 ENE 7 10 1027.3 - 0.0 - - - - - - -
22/07:00pm 11.6 ENE 7 10 1027.1 - 0.0 - - - - - - -
22/06:30pm 12.0 ENE 6 8 1026.9 - 0.0 - - - - - - -
22/06:00pm 12.7 E 6 8 1026.9 - 0.0 - - - - - - -
22/05:30pm 13.4 E 7 9 1026.9 - 0.0 - - - - - - -
22/05:00pm 13.8 E 7 9 1026.6 - 0.0 - - - - - - -
22/04:30pm 14.2 E 7 10 1026.6 - 0.0 - - - - - - -
22/04:00pm 14.9 ESE 8 13 1026.7 - 0.0 - - - - - - -
22/03:30pm 15.8 ESE 9 15 1026.6 - 0.0 - - - - - - -
22/03:00pm 16.4 ESE 7 10 1026.1 - 0.0 Fine Mostly clear 40 - - - -
22/02:30pm 18.1 ENE 9 16 1026.4 - 0.0 - - - - - - -
22/02:00pm 18.1 NE 7 13 1026.7 - 0.0 - - - - - - -
22/01:30pm 18.7 NE 8 15 1027.1 - 0.0 - - - - - - -
22/01:00pm 18.0 NNE 9 14 1027.5 - 0.0 - - - - - - -
22/12:30pm 17.9 NE 8 14 1028.0 - 0.0 - - - - - - -
22/12:00pm 16.7 NE 8 13 1028.6 - 0.0 - - - - - - -
22/11:30am 16.7 NNE 8 13 1029.2 - 0.0 - - - - - - -
22/11:00am 16.3 NNE 7 13 1029.9 - 0.0 - - - - - - -
22/10:30am 16.0 NE 9 14 1030.6 - 0.0 - - - - - - -
22/10:00am 16.0 NNE 9 15 1031.1 - 0.0 - - - - - - -
22/09:30am 16.1 NNE 8 14 1031.4 - 0.0 - - - - - - -
22/09:00am 15.0 NNE 9 13 1031.5 - 0.0 Fine Mostly clear 40 - - - -
22/08:30am 13.9 NNE 9 13 1031.3 - 0.0 - - - - - - -
22/08:00am 11.7 NNE 8 13 1031.2 - 0.0 - - - - - - -
22/07:30am 9.4 N 7 9 1031.2 - 0.0 - - - - - - -
22/07:00am 7.5 NNE 7 8 1030.8 - 0.0 - - - - - - -
22/06:30am 6.6 NNE 6 7 1030.7 - 0.0 - - - - - - -
22/06:00am 6.8 NNE 7 8 1030.5 - 0.0 - - - - - - -
22/05:30am 7.1 NNE 7 8 1030.3 - 0.0 - - - - - - -
22/05:00am 8.1 NNE 8 10 1030.1 - 0.0 - - - - - - -
22/04:30am 8.5 NNE 8 9 1030.0 - 0.0 - - - - - - -
22/04:00am 8.7 NNE 7 9 1029.9 - 0.0 - - - - - - -
22/03:30am 9.1 NNE 6 7 1029.7 - 0.0 - - - - - - -
22/03:00am 9.5 NNE 6 8 1029.9 - 0.0 - - - - - - -
22/02:30am 10.2 NNE 6 7 1029.9 - 0.0 - - - - - - -
22/02:00am 11.0 NNE 6 7 1029.8 - 0.0 - - - - - - -
22/01:30am 11.0 NNE 5 6 1030.0 - 0.0 - - - - - - -
22/01:00am 11.5 NE 5 7 1030.2 - 0.0 - - - - - - -
22/12:30am 11.5 N 5 6 1030.3 - 0.0 - - - - - - -
22/12:00am 11.7 N 6 7 1030.3 - 0.0 - - - - - - -
 
Date/Time
WST
Temp

°C
Wind Pressure Rain
since 9am
mm
Weather Cloud Vis
km
Sea
Height
m
Swell
Dir
 
Speed
knots
Gust
knots
hPa Trend Height
m
Period
s
Dir
21/11:30pm 11.6 NNE 6 7 1030.2 - 0.0 - - - - - - -
21/11:00pm 11.8 ENE 5 8 1030.3 - 0.0 - - - - - - -
21/10:30pm 12.3 NE 6 10 1030.3 - 0.0 - - - - - - -
21/10:00pm 12.7 ENE 5 8 1030.3 - 0.0 - - - - - - -
21/09:30pm 12.7 NE 5 6 1030.4 - 0.0 - - - - - - -
21/09:00pm 12.9 NE 6 7 1030.6 - 0.0 - - - - - - -
21/08:30pm 12.7 ENE 6 8 1030.6 - 0.0 - - - - - - -
21/08:00pm 12.4 ENE 4 6 1030.9 - 0.0 - - - - - - -
21/07:30pm 12.7 NE 5 6 1030.9 - 0.0 - - - - - - -
21/07:00pm 12.4 ENE 5 7 1030.9 - 0.0 - - - - - - -
21/06:30pm 11.6 E 5 6 1031.0 - 0.0 - - - - - - -
21/06:00pm 12.2 ENE 5 5 1030.9 - 0.0 - - - - - - -
21/05:30pm 12.4 E 5 6 1030.7 - 0.0 - - - - - - -
21/05:00pm 13.2 E 5 6 1030.7 - 0.0 - - - - - - -
21/04:30pm 14.0 ESE 5 6 1030.6 - 0.0 - - - - - - -
21/04:00pm 14.5 SE 6 8 1030.6 - 0.0 - - - - - - -
21/03:30pm 14.9 SE 7 11 1030.5 - 0.0 - - - - - - -
21/03:00pm 15.2 SE 7 12 1030.2 - 0.0 Fine Partly cloudy 40 - - - -
21/02:30pm 15.6 SE 7 9 1030.3 - 0.0 - - - - - - -
21/02:00pm 15.5 SE 7 10 1030.3 - 0.0 - - - - - - -
21/01:30pm 15.3 SE 7 10 1030.5 - 0.0 - - - - - - -
21/01:00pm 15.6 SE 7 10 1030.5 - 0.0 - - - - - - -
21/12:30pm 16.8 SE 7 10 1030.7 - 0.0 - - - - - - -
21/12:00pm 16.8 SE 7 10 1031.0 - 0.0 - - - - - - -
21/11:30am 15.9 SE 7 9 1031.5 - 0.0 - - - - - - -
21/11:00am 17.1 SE 6 9 1031.9 - 0.0 - - - - - - -
21/10:30am 15.0 S 4 8 1032.1 - 0.0 - - - - - - -
21/10:00am 14.8 SSW 4 6 1032.4 - 0.0 - - - - - - -
21/09:30am 14.3 W 5 6 1032.6 - 0.0 - - - - - - -
21/09:00am 13.2 WNW 6 7 1032.7 - 0.8 Fine Mostly cloudy 40 - - - -
21/08:30am 12.0 WSW 4 6 1032.6 - 0.8 - - - - - - -
21/08:00am 11.7 WSW 5 8 1032.4 - 0.8 - - - - - - -
21/07:30am 11.4 NW 4 5 1031.9 - 0.8 - - - - - - -
21/07:00am 10.0 NW 4 5 1031.7 - 0.8 - - - - - - -
21/06:30am 7.8 N 5 5 1031.4 - 0.8 - - - - - - -
21/06:00am 9.6 NNW 5 6 1031.2 - 0.8 - - - - - - -
21/05:30am 10.2 W 4 4 1030.8 - 0.8 - - - - - - -
21/05:00am 10.6 W 5 6 1030.4 - 0.8 - - - - - - -
21/04:30am 10.4 W 5 6 1030.3 - 0.8 - - - - - - -
21/04:00am 8.7 NW 4 6 1030.2 - 0.8 - - - - - - -
21/03:30am 8.0 NNW 4 5 1029.8 - 0.8 - - - - - - -
21/03:00am 8.3 NNW 5 5 1029.8 - 0.8 - - - - - - -
21/02:30am 7.0 N 5 5 1030.1 - 0.8 - - - - - - -
21/02:00am 9.8 W 4 5 1030.2 - 0.8 - - - - - - -
21/01:30am 9.0 W 5 6 1030.2 - 0.8 - - - - - - -
21/01:00am 6.4 WSW 4 5 1030.2 - 0.8 - - - - - - -
21/12:30am 5.6 WNW 4 5 1030.2 - 0.8 - - - - - - -
21/12:00am 6.7 NW 5 5 1030.2 - 0.8 - - - - - - -
 
Date/Time
WST
Temp

°C
Wind Pressure Rain
since 9am
mm
Weather Cloud Vis
km
Sea
Height
m
Swell
Dir
 
Speed
knots
Gust
knots
hPa Trend Height
m
Period
s
Dir
20/11:30pm 8.7 SSE 3 4 1030.4 - 0.8 - - - - - - -
20/11:00pm 10.3 SE 4 5 1030.4 - 0.8 - - - - - - -
20/10:30pm 11.6 SE 4 5 1030.3 - 0.8 - - - - - - -
20/10:00pm 11.4 SSE 4 6 1030.2 - 0.8 - - - - - - -
20/09:30pm 12.0 SSE 6 9 1030.1 - 0.8 - - - - - - -
20/09:00pm 12.8 SSE 6 9 1030.0 - 0.8 - - - - - - -
20/08:30pm 12.0 SSE 4 7 1029.9 - 0.8 - - - - - - -
20/08:00pm 12.3 SW 2 7 1029.7 - 0.8 - - - - - - -
20/07:30pm 11.7 WSW 3 7 1029.7 - 0.8 - - - - - - -
20/07:00pm 12.0 SSW 7 11 1029.4 - 0.8 - - - - - - -
20/06:30pm 11.8 SSE 6 9 1029.0 - 0.8 - - - - - - -
20/06:00pm 12.2 SSE 6 10 1028.8 - 0.8 - - - - - - -
20/05:30pm 11.5 SE 6 10 1028.6 - 0.8 - - - - - - -
20/05:00pm 12.2 S 9 16 1028.4 - 0.8 - - - - - - -
20/04:30pm 12.5 SSE 6 9 1028.1 - 0.6 - - - - - - -
20/04:00pm 13.1 SSE 8 11 1027.8 - 0.6 - - - - - - -
20/03:30pm 12.7 SSE 7 11 1027.7 - 0.6 - - - - - - -
20/03:00pm 12.4 SSE 9 19 1027.4 - 0.6 Rain - - - - - -
20/02:30pm 14.5 S 10 14 1027.1 - 0.2 - - - - - - -
20/02:00pm 13.7 SSE 8 14 1026.9 - 0.2 - - - - - - -
20/01:30pm 14.5 SSE 10 16 1026.8 - 0.2 - - - - - - -
20/01:00pm 15.4 SSE 12 16 1026.6 - 0.2 - - - - - - -
20/12:30pm 15.1 S 11 16 1026.6 - 0.2 - - - - - - -
20/12:00pm 13.6 S 10 16 1026.6 - 0.2 - - - - - - -
20/11:30am 14.0 SSE 9 15 1026.7 - 0.2 - - - - - - -
20/11:00am 14.7 S 10 15 1026.9 - 0.2 - - - - - - -

Other Formats:

Comma delimited format used in spreadsheet applications
http://www.bom.gov.au/fwo/IDW60701/IDW60701.94647.axf

JavaScript Object Notation format (JSON) in row-major order
http://www.bom.gov.au/fwo/IDW60701/IDW60701.94647.json